Zell, South Dakota
Current Conditions -  °F | °C
As of 8:55 PM on Thursday 27 Nov 2014 (Local Time) from KHON Reporting Station
Overcast Overcast  
Wind Chill:   Ceiling: 10000
Heat Index: 16°   Visibility: 10mi
Dew Point:   Wind: 18mph
Humidity: 74%   Direction: 150°SSE
Pressure: 30"   Gusts: 26mph
Location:  44.8619°N, 98.4743°W
Report Text: KHON 280255Z AUTO 15016G23KT 10SM OVC100 M09/M13 A3000 RMK AO2 PRESFR SLP187 T10891128 58045
Loading
Personal Weather Stations






























Interactive Weather Map New forecast layout! Learn more

10-Day Weather Forecast

Advertisements
Track Severe Weather on mobile